Weather at Silata Airfield

Public forecast

Using degrees Celsius for public forecast. Weather courtesy of forecast.io.

Closest aviation weather report (METAR) to Silata Airfield

Closest report is Thessaloniki Macedonia International Airport, 14.0 nm (25.9 km) NW.

2024/05/24 00:20 (retrieved 24 minutes ago)

LGTS 240020Z 13004KT 9999 FEW030 17/12 Q1015 NOSIG

Closest aviation forecast (TAF) to Silata Airfield

Forecast is more than 6 hours old.

Closest forecast is Kukës International Airport, 160.4 nm (297.1 km) NW.

2024/05/23 18:00 Ammendment (retrieved 7 hours ago)

TAF AMD LAKU 231900Z 2318/2418 CNL